Time;durP1;ratioP1;P1;durP2;ratioP2;P2;SDS_P1;SDS_P2;PMS_P1;PMS_P2;Temp;Humidity;BMP_temperature;BMP_pressure;BME280_temperature;BME280_humidity;BME280_pressure;Samples;Min_cycle;Max_cycle;Signal;HPM_P1;HPM_P2
2023/09/16 00:02:15;;;;;;;8.50;4.97;;;;;;;14.13;89.96;101355.72;4975810;22;20986;-94
2023/09/16 00:04:55;;;;;;;7.30;4.90;;;;;;;14.13;91.03;101342.63;5034109;28;20046;-95
2023/09/16 00:07:24;;;;;;;7.85;5.45;;;;;;;14.13;91.34;101342.63;5030350;28;20021;-95
2023/09/16 00:10:02;;;;;;;;;;;;;;;;;;;;;
2023/09/16 00:12:27;;;;;;;7.55;5.35;;;;;;;14.10;91.77;101339.22;5028441;28;20056;-94
2023/09/16 00:15:02;;;;;;;9.60;4.93;;;;;;;14.12;92.04;101333.91;5022308;28;20402;-95
2023/09/16 00:17:30;;;;;;;8.70;5.13;;;;;;;14.15;92.14;101338.22;5024326;28;20041;-95
2023/09/16 00:19:58;;;;;;;8.00;5.45;;;;;;;14.16;92.08;101337.31;5021395;28;20260;-95
2023/09/16 00:22:29;;;;;;;8.20;5.47;;;;;;;14.16;91.92;101337.31;5025924;28;20124;-96
2023/09/16 00:25:00;;;;;;;8.50;5.93;;;;;;;14.17;92.22;101333.78;5016372;28;20045;-94
2023/09/16 00:27:35;;;;;;;;;;;;;;;;;;;;;
2023/09/16 00:30:05;;;;;;;7.07;5.57;;;;;;;14.18;92.31;101340.69;5022999;28;20190;-92
2023/09/16 00:32:43;;;;;;;;;;;;;;;;;;;;;
2023/09/16 00:35:14;;;;;;;8.45;5.53;;;;;;;14.19;92.24;101342.41;5006728;28;20028;-94
2023/09/16 00:37:49;;;;;;;;;;;;;;;;;;;;;
2023/09/16 00:40:15;;;;;;;8.77;5.82;;;;;;;14.19;92.47;101338.03;5014359;28;20461;-95
2023/09/16 00:42:52;;;;;;;8.60;5.60;;;;;;;14.20;92.68;101338.88;5013867;28;20105;-94
2023/09/16 00:45:30;;;;;;;7.13;5.50;;;;;;;14.18;92.45;101346.81;5018528;28;20030;-94
2023/09/16 00:47:59;;;;;;;8.73;5.78;;;;;;;14.17;92.79;101347.69;5018624;28;20084;-95
2023/09/16 00:50:35;;;;;;;8.07;5.82;;;;;;;14.19;93.27;101339.78;5015721;28;20041;-95
2023/09/16 00:53:13;;;;;;;;;;;;;;;;;;;;;
2023/09/16 00:55:41;;;;;;;7.65;6.22;;;;;;;14.15;91.71;101330.34;5014464;28;20025;-92
2023/09/16 00:58:19;;;;;;;;;;;;;;;;;;;;;
2023/09/16 01:00:48;;;;;;;8.32;6.10;;;;;;;14.10;91.57;101339.22;5031903;28;20024;-95
2023/09/16 01:03:35;;;;;;;8.23;6.07;;;;;;;14.09;92.22;101332.25;5021608;28;20076;-95
2023/09/16 01:06:05;;;;;;;9.02;6.32;;;;;;;14.11;92.22;101329.56;4996374;28;20109;-93
2023/09/16 01:08:32;;;;;;;7.93;5.78;;;;;;;14.09;91.74;101326.19;5027890;28;20492;-94
2023/09/16 01:11:08;;;;;;;8.55;5.72;;;;;;;14.06;91.44;101318.44;5033034;28;20021;-95
2023/09/16 01:13:37;;;;;;;8.77;6.00;;;;;;;14.04;91.67;101323.69;5018590;28;20050;-93
2023/09/16 01:16:26;;;;;;;8.45;6.13;;;;;;;14.02;91.73;101316.81;5030157;28;20030;-95
2023/09/16 01:19:07;;;;;;;;;;;;;;;;;;;;;
2023/09/16 01:21:52;;;;;;;;;;;;;;;;;;;;;
2023/09/16 01:24:19;;;;;;;7.45;5.72;;;;;;;13.92;91.08;101303.19;5018261;28;20029;-93
2023/09/16 01:26:48;;;;;;;8.07;6.50;;;;;;;13.89;91.62;101309.38;5012332;28;20026;-94
2023/09/16 01:29:25;;;;;;;9.25;6.35;;;;;;;13.87;91.66;101310.31;5015838;28;20041;-94
2023/09/16 01:32:04;;;;;;;7.72;6.22;;;;;;;13.81;92.00;101309.63;5013883;28;20057;-93
2023/09/16 01:35:00;;;;;;;8.85;6.53;;;;;;;13.79;91.52;101307.94;5025750;28;20112;-94
2023/09/16 01:37:39;;;;;;;8.52;5.78;;;;;;;13.77;92.04;101313.22;5005733;28;20040;-94
2023/09/16 01:40:11;;;;;;;9.32;6.38;;;;;;;13.75;92.71;101312.41;5012928;28;20030;-94
2023/09/16 01:42:39;;;;;;;8.75;6.18;;;;;;;13.73;91.87;101303.75;5002407;28;20029;-93
2023/09/16 01:45:18;;;;;;;9.55;6.45;;;;;;;13.71;92.39;101315.19;5028487;28;20029;-95
2023/09/16 01:47:52;;;;;;;9.65;6.65;;;;;;;13.69;92.66;101312.59;5017518;28;20028;-93
2023/09/16 01:50:21;;;;;;;12.00;6.70;;;;;;;13.66;92.84;101313.56;5025273;28;20057;-95
2023/09/16 01:52:47;;;;;;;9.85;7.00;;;;;;;13.64;93.13;101301.44;5014039;28;20022;-95
2023/09/16 01:55:12;;;;;;;9.98;6.07;;;;;;;13.62;92.83;101306.72;5011739;28;20112;-93
2023/09/16 01:57:40;;;;;;;7.68;6.28;;;;;;;13.61;92.80;101307.59;5012651;28;20076;-94
2023/09/16 02:00:06;;;;;;;8.93;6.10;;;;;;;13.60;92.88;101300.66;5010905;28;20034;-95
2023/09/16 02:02:46;;;;;;;;;;;;;;;;;;;;;
2023/09/16 02:05:14;;;;;;;8.73;6.60;;;;;;;13.61;93.59;101298.94;5015966;28;20030;-94
2023/09/16 02:07:39;;;;;;;8.45;6.38;;;;;;;13.60;93.39;101299.81;5011615;28;20478;-95
2023/09/16 02:10:09;;;;;;;10.38;7.07;;;;;;;13.60;93.49;101299.81;5026857;28;20065;-91
2023/09/16 02:12:34;;;;;;;10.18;7.47;;;;;;;13.57;93.91;101298.16;5043333;28;20430;-95
2023/09/16 02:15:02;;;;;;;9.45;7.00;;;;;;;13.56;93.40;101306.03;5014667;28;20054;-94
2023/09/16 02:17:38;;;;;;;10.60;6.85;;;;;;;13.53;93.82;101307.00;5012502;28;20393;-94
2023/09/16 02:20:15;;;;;;;;;;;;;;;;;;;;;
2023/09/16 02:22:44;;;;;;;8.80;6.70;;;;;;;13.50;93.76;101301.88;5017568;28;20021;-95
2023/09/16 02:25:09;;;;;;;7.85;6.05;;;;;;;13.48;93.44;101298.44;5010920;28;20476;-94
2023/09/16 02:27:34;;;;;;;8.88;6.25;;;;;;;13.46;93.62;101305.47;5011731;28;20177;-94
2023/09/16 02:30:00;;;;;;;10.00;6.15;;;;;;;13.43;93.75;101303.81;5010929;28;20026;-95
2023/09/16 02:32:25;;;;;;;8.25;6.47;;;;;;;13.42;93.87;101296.88;5021689;28;20061;-94
2023/09/16 02:34:50;;;;;;;8.07;6.47;;;;;;;13.40;93.76;101290.84;5011008;28;20034;-94
2023/09/16 02:37:16;;;;;;;9.05;6.72;;;;;;;13.39;94.18;101291.69;5013958;28;20466;-94
2023/09/16 02:39:41;;;;;;;8.77;6.53;;;;;;;13.37;94.35;101288.28;4994926;28;20084;-94
2023/09/16 02:42:06;;;;;;;9.20;6.65;;;;;;;13.36;94.25;101281.34;5012265;28;20034;-93
2023/09/16 02:44:31;;;;;;;9.25;6.93;;;;;;;13.34;94.28;101291.84;5012746;28;20038;-94
2023/09/16 02:46:57;;;;;;;9.73;7.25;;;;;;;13.34;94.55;101288.38;5028928;28;20036;-95
2023/09/16 02:49:22;;;;;;;8.55;7.05;;;;;;;13.33;94.58;101290.13;5014024;28;20470;-94
2023/09/16 02:51:48;;;;;;;8.07;6.07;;;;;;;13.34;94.54;101285.75;5011697;28;20022;-94
2023/09/16 02:54:14;;;;;;;8.07;5.90;;;;;;;13.31;94.10;101289.31;4994257;28;20041;-95
2023/09/16 02:56:39;;;;;;;9.32;6.28;;;;;;;13.28;94.30;101288.56;5012482;28;20374;-95
2023/09/16 02:59:04;;;;;;;7.28;5.72;;;;;;;13.26;94.25;101292.97;4994468;28;20061;-92
2023/09/16 03:01:30;;;;;;;9.10;6.05;;;;;;;13.24;94.47;101294.78;5009115;28;20050;-92
2023/09/16 03:03:55;;;;;;;9.20;6.13;;;;;;;13.23;94.12;101295.69;5011508;28;20037;-94
2023/09/16 03:06:22;;;;;;;7.03;5.55;;;;;;;13.21;94.09;101288.75;5012124;28;20030;-92
2023/09/16 03:08:48;;;;;;;7.70;6.00;;;;;;;13.23;94.59;101293.06;5029659;28;20021;-93
2023/09/16 03:11:14;;;;;;;8.57;5.97;;;;;;;13.22;94.34;101292.22;5010262;28;20054;-94
2023/09/16 03:13:39;;;;;;;9.10;6.25;;;;;;;13.24;94.38;101289.56;5006704;28;20089;-96
2023/09/16 03:16:21;;;;;;;8.93;6.22;;;;;;;13.23;94.59;101282.63;5014487;28;20037;-95
2023/09/16 03:18:48;;;;;;;8.35;6.70;;;;;;;13.21;95.03;101280.91;5014723;28;20540;-94
2023/09/16 03:21:15;;;;;;;10.43;7.28;;;;;;;13.20;95.20;101281.81;5011696;28;20038;-93
2023/09/16 03:23:41;;;;;;;10.32;6.95;;;;;;;13.17;95.35;101278.44;5015369;28;20072;-95
2023/09/16 03:26:08;;;;;;;9.77;7.25;;;;;;;13.16;94.96;101271.50;5020106;28;20041;-94
2023/09/16 03:28:33;;;;;;;9.05;7.20;;;;;;;13.14;95.04;101271.56;5013943;28;20418;-95
2023/09/16 03:30:59;;;;;;;9.90;7.38;;;;;;;13.13;94.85;101272.44;5028431;28;20065;-94
2023/09/16 03:33:24;;;;;;;10.70;7.28;;;;;;;13.10;94.81;101267.31;5014811;28;20037;-94
2023/09/16 03:35:49;;;;;;;10.55;6.95;;;;;;;13.09;94.63;101267.34;5021954;28;20032;-95
2023/09/16 03:38:16;;;;;;;8.35;6.45;;;;;;;13.07;94.59;101264.78;5014469;28;20088;-95
2023/09/16 03:40:42;;;;;;;11.25;6.80;;;;;;;13.05;94.89;101263.97;5002795;28;20108;-94
2023/09/16 03:43:07;;;;;;;9.13;6.82;;;;;;;13.04;94.97;101262.25;5018498;28;20108;-95
2023/09/16 03:45:32;;;;;;;9.27;6.75;;;;;;;13.03;95.17;101261.41;5026211;28;20025;-95
2023/09/16 03:47:57;;;;;;;10.30;7.18;;;;;;;13.04;95.30;101262.25;5022340;28;20030;-94
2023/09/16 03:50:23;;;;;;;10.27;7.15;;;;;;;13.02;95.48;101254.47;5014636;28;20030;-94
2023/09/16 03:52:49;;;;;;;9.13;7.28;;;;;;;13.02;95.65;101256.22;5014410;28;20041;-94
2023/09/16 03:55:15;;;;;;;10.02;7.25;;;;;;;13.01;95.36;101257.13;5014870;28;20029;-94
2023/09/16 03:57:40;;;;;;;10.23;7.40;;;;;;;13.00;95.66;101253.66;5014528;28;20033;-93
2023/09/16 04:00:07;;;;;;;9.32;7.15;;;;;;;12.99;96.09;101264.13;5014767;28;20385;-95
2023/09/16 04:02:32;;;;;;;8.60;6.88;;;;;;;12.99;96.41;101259.78;5023487;28;20053;-90
2023/09/16 04:04:58;;;;;;;9.43;6.70;;;;;;;13.00;95.89;101260.63;5045340;28;20021;-91
2023/09/16 04:07:23;;;;;;;9.68;6.57;;;;;;;12.96;95.24;101262.47;5026480;28;20528;-93
2023/09/16 04:09:48;;;;;;;8.73;6.82;;;;;;;12.95;95.17;101267.75;5011387;28;20029;-95
2023/09/16 04:12:16;;;;;;;8.90;6.60;;;;;;;12.94;95.21;101261.66;5030133;28;20124;-95
2023/09/16 04:14:44;;;;;;;7.85;6.05;;;;;;;12.92;94.97;101268.69;5025624;28;20045;-94
2023/09/16 04:17:12;;;;;;;9.05;6.90;;;;;;;12.92;95.33;101262.63;5014798;28;20046;-95
2023/09/16 04:19:37;;;;;;;8.45;6.57;;;;;;;12.93;95.60;101266.94;5002861;28;20033;-93
2023/09/16 04:22:03;;;;;;;9.15;6.82;;;;;;;12.93;95.64;101270.41;5033817;28;20025;-94
2023/09/16 04:24:28;;;;;;;9.23;6.80;;;;;;;12.93;95.64;101259.94;5029805;28;20032;-95
2023/09/16 04:26:55;;;;;;;10.25;7.32;;;;;;;12.94;95.75;101260.81;5027304;28;20022;-93
2023/09/16 04:29:21;;;;;;;10.90;7.68;;;;;;;12.92;96.07;101257.41;5014403;28;20044;-92
2023/09/16 04:31:46;;;;;;;9.77;7.50;;;;;;;12.92;95.67;101262.63;5018951;28;20458;-94
2023/09/16 04:34:11;;;;;;;9.75;6.82;;;;;;;12.87;95.73;101255.75;5015424;28;20078;-94
2023/09/16 04:36:38;;;;;;;8.65;6.18;;;;;;;12.86;95.79;101254.06;5032776;28;20473;-96
2023/09/16 04:39:04;;;;;;;7.38;5.82;;;;;;;12.83;95.69;101254.13;5007780;28;20030;-93
2023/09/16 04:41:29;;;;;;;6.55;5.45;;;;;;;12.81;95.59;101250.72;5016428;28;20034;-95
2023/09/16 04:43:54;;;;;;;6.75;5.60;;;;;;;12.80;95.89;101245.53;5015997;28;20038;-93
2023/09/16 04:46:20;;;;;;;7.95;5.30;;;;;;;12.78;96.06;101245.59;5027993;28;20028;-94
2023/09/16 04:48:46;;;;;;;7.68;5.10;;;;;;;12.76;96.38;101242.19;5014893;28;20033;-93
2023/09/16 04:51:11;;;;;;;6.45;5.22;;;;;;;12.75;96.33;101246.53;5010861;28;20033;-94
2023/09/16 04:53:37;;;;;;;7.60;5.63;;;;;;;12.74;96.37;101243.97;5033273;28;20477;-93
2023/09/16 04:56:05;;;;;;;7.03;5.40;;;;;;;12.74;96.43;101251.81;5032381;28;20044;-94
2023/09/16 04:58:31;;;;;;;7.20;5.43;;;;;;;12.72;96.35;101250.97;5005827;28;20025;-95
2023/09/16 05:00:58;;;;;;;6.65;5.63;;;;;;;12.69;96.84;101257.16;5009801;28;20037;-94
2023/09/16 05:03:24;;;;;;;8.48;5.90;;;;;;;12.70;97.26;101253.66;5031171;28;20056;-92
2023/09/16 05:05:51;;;;;;;8.30;5.85;;;;;;;12.70;97.41;101252.78;5003412;28;20489;-94
2023/09/16 05:08:16;;;;;;;8.65;5.80;;;;;;;12.71;96.72;101251.88;5020472;28;20075;-94
2023/09/16 05:10:42;;;;;;;8.13;6.10;;;;;;;12.71;96.72;101250.16;5027550;28;20025;-94
2023/09/16 05:13:07;;;;;;;9.35;6.90;;;;;;;12.73;96.80;101248.31;5023026;28;20112;-94
2023/09/16 05:15:32;;;;;;;10.00;7.20;;;;;;;12.74;97.42;101249.19;5013278;28;20037;-94
2023/09/16 05:17:57;;;;;;;10.07;7.78;;;;;;;12.74;97.51;101244.81;5012861;28;20029;-95
2023/09/16 05:20:23;;;;;;;10.88;8.13;;;;;;;12.76;97.52;101255.22;5015729;28;20029;-93
2023/09/16 05:22:49;;;;;;;10.40;8.18;;;;;;;12.76;97.92;101247.41;5012766;28;20041;-92
2023/09/16 05:25:15;;;;;;;11.45;8.20;;;;;;;12.73;98.18;101255.31;5012869;28;20030;-94
2023/09/16 05:27:40;;;;;;;10.82;7.90;;;;;;;12.73;98.37;101252.69;5012488;28;20041;-94
2023/09/16 05:30:06;;;;;;;10.85;7.95;;;;;;;12.73;97.97;101250.09;5014814;28;20037;-94
2023/09/16 05:32:31;;;;;;;8.85;6.80;;;;;;;12.73;97.99;101252.69;5019659;28;20048;-94
2023/09/16 05:34:57;;;;;;;8.63;6.53;;;;;;;12.71;97.18;101259.72;5006560;28;20034;-96
2023/09/16 05:37:22;;;;;;;9.50;6.93;;;;;;;12.73;97.34;101257.91;5012393;28;20037;-93
2023/09/16 05:39:48;;;;;;;7.45;6.13;;;;;;;12.75;97.47;101256.13;5016115;28;20036;-94
2023/09/16 05:42:13;;;;;;;11.73;7.38;;;;;;;12.77;97.37;101250.84;5013243;28;20079;-93
2023/09/16 05:44:39;;;;;;;11.23;8.27;;;;;;;12.78;97.82;101250.81;5009454;28;20026;-94
2023/09/16 05:47:04;;;;;;;13.40;8.00;;;;;;;12.80;98.25;101249.03;5021076;28;20030;-93
2023/09/16 05:49:29;;;;;;;9.48;7.32;;;;;;;12.82;97.97;101256.81;5019791;28;20404;-94
2023/09/16 05:51:55;;;;;;;10.68;7.93;;;;;;;12.85;98.06;101257.56;5013483;28;20036;-93
2023/09/16 05:54:21;;;;;;;9.85;7.63;;;;;;;12.86;98.24;101259.28;5011757;28;20055;-93
2023/09/16 05:56:46;;;;;;;9.70;7.32;;;;;;;12.86;98.50;101254.06;5013035;28;20539;-92
2023/09/16 05:59:12;;;;;;;9.90;7.05;;;;;;;12.89;98.54;101253.13;5013241;28;20038;-93
2023/09/16 06:01:37;;;;;;;7.80;6.47;;;;;;;12.92;98.52;101252.19;5011289;28;20546;-94
2023/09/16 06:04:03;;;;;;;9.50;6.93;;;;;;;12.95;98.77;101252.09;5007883;28;20479;-95
2023/09/16 06:06:28;;;;;;;11.23;7.68;;;;;;;12.97;99.15;101250.28;5017735;28;20036;-95
2023/09/16 06:08:54;;;;;;;10.38;7.47;;;;;;;13.01;99.40;101259.72;5012122;28;20030;-92
2023/09/16 06:11:19;;;;;;;8.88;6.88;;;;;;;13.05;99.61;101253.53;5021096;28;20049;-92
2023/09/16 06:13:44;;;;;;;9.57;7.35;;;;;;;13.10;99.96;101261.22;5012182;28;20025;-94
2023/09/16 06:16:10;;;;;;;10.77;7.68;;;;;;;13.15;100.00;101254.94;5012303;28;20117;-94
2023/09/16 06:18:35;;;;;;;10.88;8.07;;;;;;;13.20;100.00;101263.50;5019314;28;20381;-96
2023/09/16 06:21:01;;;;;;;9.73;7.90;;;;;;;13.26;100.00;101262.47;5021957;28;20095;-95
2023/09/16 06:23:27;;;;;;;10.80;8.80;;;;;;;13.32;100.00;101264.06;5013698;28;20083;-94
2023/09/16 06:25:52;;;;;;;12.98;9.30;;;;;;;13.36;100.00;101268.28;5020341;28;20491;-95
2023/09/16 06:28:18;;;;;;;12.30;9.93;;;;;;;13.43;100.00;101269.84;5010944;28;20052;-94
2023/09/16 06:30:43;;;;;;;12.25;9.85;;;;;;;13.48;100.00;101273.16;5011787;28;20022;-95
2023/09/16 06:33:08;;;;;;;13.10;9.93;;;;;;;13.55;100.00;101272.97;5018386;28;20040;-93
2023/09/16 06:35:33;;;;;;;14.48;10.45;;;;;;;13.60;100.00;101277.13;5012732;28;20026;-95
2023/09/16 06:37:59;;;;;;;15.38;10.55;;;;;;;13.66;100.00;101273.50;5027011;28;20584;-94
2023/09/16 06:40:24;;;;;;;12.95;10.38;;;;;;;13.70;100.00;101266.41;5015168;28;20022;-92
2023/09/16 06:42:49;;;;;;;13.50;10.32;;;;;;;13.76;100.00;101271.41;5013869;28;20033;-93
2023/09/16 06:45:14;;;;;;;12.02;9.75;;;;;;;13.83;100.00;101280.78;5013684;28;20385;-94
2023/09/16 06:47:40;;;;;;;14.30;11.02;;;;;;;13.89;100.00;101274.50;4993701;28;20102;-94
2023/09/16 06:50:06;;;;;;;14.88;10.60;;;;;;;13.97;100.00;101275.13;5027640;28;20014;-93
2023/09/16 06:52:32;;;;;;;16.73;9.85;;;;;;;14.03;100.00;101279.28;5012167;28;20030;-93
2023/09/16 06:54:57;;;;;;;13.15;10.07;;;;;;;14.10;100.00;101275.53;5012447;28;20076;-94
2023/09/16 06:57:22;;;;;;;13.68;10.48;;;;;;;14.19;100.00;101284.84;5012640;28;20030;-94
2023/09/16 06:59:48;;;;;;;13.55;10.68;;;;;;;14.25;100.00;101279.41;5026099;28;20092;-94
2023/09/16 07:02:14;;;;;;;14.48;10.07;;;;;;;14.34;100.00;101281.72;5016828;28;20104;-93
2023/09/16 07:04:42;;;;;;;14.52;10.65;;;;;;;14.40;100.00;101284.13;5014700;28;20033;-94
2023/09/16 07:07:09;;;;;;;14.85;10.68;;;;;;;14.50;100.00;101283.81;5015706;28;20022;-95
2023/09/16 07:09:34;;;;;;;16.05;10.45;;;;;;;14.57;100.00;101275.69;5027339;28;20032;-93
2023/09/16 07:11:59;;;;;;;11.05;8.93;;;;;;;14.65;100.00;101280.66;5022969;28;20026;-95
2023/09/16 07:14:25;;;;;;;13.88;10.68;;;;;;;14.71;100.00;101267.34;5019958;28;20141;-94
2023/09/16 07:16:50;;;;;;;14.05;10.73;;;;;;;14.78;100.00;101278.44;5019688;28;20072;-96
2023/09/16 07:19:15;;;;;;;12.23;9.82;;;;;;;14.83;100.00;101275.69;5017161;28;20018;-93
2023/09/16 07:21:41;;;;;;;14.18;9.98;;;;;;;14.89;100.00;101275.44;5006650;28;20029;-95
2023/09/16 07:24:06;;;;;;;13.00;8.88;;;;;;;14.96;100.00;101274.31;5022418;28;20104;-94
2023/09/16 07:26:31;;;;;;;12.55;9.18;;;;;;;15.02;100.00;101276.72;5028550;28;20092;-94
2023/09/16 07:28:58;;;;;;;11.48;9.25;;;;;;;15.10;100.00;101272.94;5023425;28;20025;-94
2023/09/16 07:31:23;;;;;;;12.40;9.70;;;;;;;15.16;100.00;101273.53;5024202;28;20087;-96
2023/09/16 07:33:48;;;;;;;12.32;9.70;;;;;;;15.24;100.00;101273.25;5028845;28;20021;-94
2023/09/16 07:36:14;;;;;;;14.05;9.20;;;;;;;15.30;100.00;101265.16;5020904;28;20026;-95
2023/09/16 07:38:39;;;;;;;11.02;9.05;;;;;;;15.38;100.00;101271.84;5007390;28;20105;-93
2023/09/16 07:41:05;;;;;;;13.48;9.25;;;;;;;15.46;100.00;101277.66;5021982;28;20025;-94
2023/09/16 07:43:30;;;;;;;12.43;9.52;;;;;;;15.51;100.00;101273.09;5025495;28;20029;-95
2023/09/16 07:45:56;;;;;;;10.88;8.50;;;;;;;15.59;100.00;101278.88;5008467;28;20433;-94
2023/09/16 07:48:22;;;;;;;12.32;8.77;;;;;;;15.65;100.00;101279.56;5003045;28;20026;-94
2023/09/16 07:51:04;;;;;;;10.07;8.05;;;;;;;15.72;100.00;101281.00;5016192;28;20032;-95
2023/09/16 07:53:30;;;;;;;14.02;8.82;;;;;;;15.78;100.00;101281.63;5014943;28;20029;-96
2023/09/16 07:55:55;;;;;;;10.95;7.78;;;;;;;15.85;100.00;101282.28;5033276;28;20048;-91
2023/09/16 07:58:20;;;;;;;10.30;7.72;;;;;;;15.90;100.00;101285.53;5027436;28;20452;-93
2023/09/16 08:00:46;;;;;;;10.65;8.30;;;;;;;15.97;99.98;101285.31;5023033;28;20026;-94
2023/09/16 08:03:11;;;;;;;11.05;8.13;;;;;;;16.01;100.00;101282.47;5021840;28;20050;-95
2023/09/16 08:05:36;;;;;;;12.80;7.53;;;;;;;16.06;99.43;101284.91;5012091;28;20156;-94
2023/09/16 08:08:02;;;;;;;11.65;7.75;;;;;;;16.10;98.96;101283.88;5022977;28;20029;-94
2023/09/16 08:10:28;;;;;;;10.63;7.97;;;;;;;16.12;99.54;101282.03;5027322;28;20033;-94
2023/09/16 08:12:53;;;;;;;10.95;8.10;;;;;;;16.18;99.75;101292.28;5024973;28;20485;-94
2023/09/16 08:15:18;;;;;;;12.40;8.55;;;;;;;16.23;99.53;101292.09;5024154;28;20029;-91
2023/09/16 08:17:44;;;;;;;10.57;8.13;;;;;;;16.29;98.67;101291.84;5028405;28;20032;-92
2023/09/16 08:20:09;;;;;;;9.85;7.93;;;;;;;16.37;99.04;101294.13;5033395;28;20064;-94
2023/09/16 08:22:35;;;;;;;10.93;8.30;;;;;;;16.44;99.25;101285.06;5030789;28;20040;-95
2023/09/16 08:25:02;;;;;;;9.73;8.07;;;;;;;16.51;98.30;101290.88;5023191;28;20161;-93
2023/09/16 08:27:28;;;;;;;10.45;8.55;;;;;;;16.57;98.15;101288.00;5017068;28;20485;-93
2023/09/16 08:29:54;;;;;;;9.95;7.82;;;;;;;16.62;97.45;101285.16;4998066;28;20049;-95
2023/09/16 08:32:21;;;;;;;11.35;8.00;;;;;;;16.68;97.04;101298.03;5020586;28;20028;-93
2023/09/16 08:34:46;;;;;;;10.65;8.05;;;;;;;16.74;96.42;101297.75;5019783;28;20037;-94
2023/09/16 08:37:12;;;;;;;11.23;8.30;;;;;;;16.80;96.49;101302.75;5029504;28;20038;-93
2023/09/16 08:39:37;;;;;;;12.18;8.02;;;;;;;16.88;96.08;101293.69;5033935;28;20511;-96
2023/09/16 08:42:10;;;;;;;10.70;8.10;;;;;;;16.94;95.73;101298.63;5023889;28;20026;-93
2023/09/16 08:44:44;;;;;;;11.18;7.97;;;;;;;17.01;96.07;101299.25;5020907;28;20041;-94
2023/09/16 09:34:42;;;;;;;10.55;7.45;;;;;;;18.04;92.38;101317.19;3170354;23;20077;-91
2023/09/16 09:37:16;;;;;;;9.57;7.82;;;;;;;18.10;91.28;101322.16;4983678;28;20113;-90
2023/09/16 09:49:12;;;;;;;9.20;7.25;;;;;;;18.37;88.97;101323.50;4990241;28;20057;-96
2023/09/16 09:51:50;;;;;;;;;;;;;;;;;;;;;
2023/09/16 10:34:22;;;;;;;7.80;6.05;;;;;;;19.35;83.69;101324.50;5013164;23;20059;-83
2023/09/16 10:36:48;;;;;;;9.20;6.82;;;;;;;19.43;84.90;101314.41;4963960;28;20032;-83
2023/09/16 10:39:15;;;;;;;9.43;6.57;;;;;;;19.47;84.50;101315.91;4961972;28;20039;-82
2023/09/16 10:41:41;;;;;;;9.38;6.32;;;;;;;19.55;84.68;101313.72;4962770;28;20038;-82
2023/09/16 10:44:07;;;;;;;11.43;6.70;;;;;;;19.61;84.52;101311.66;4948430;28;20031;-85
2023/09/16 10:46:34;;;;;;;11.00;7.28;;;;;;;19.66;84.94;101304.31;4941997;29;20036;-83
2023/09/16 10:48:59;;;;;;;8.93;6.43;;;;;;;19.70;83.80;101308.50;4942041;29;20114;-85
2023/09/16 10:51:28;;;;;;;7.93;6.43;;;;;;;19.73;84.28;101305.69;4943036;29;20171;-84
2023/09/16 10:54:03;;;;;;;8.13;6.55;;;;;;;19.75;83.42;101303.81;4942475;28;20039;-84
2023/09/16 10:56:36;;;;;;;8.15;6.32;;;;;;;19.80;82.80;101309.69;4942498;29;20514;-85
2023/09/16 10:59:10;;;;;;;9.85;6.85;;;;;;;19.82;81.71;101305.13;4943222;29;20039;-84
2023/09/16 11:01:55;;;;;;;10.10;5.80;;;;;;;19.84;82.07;101300.63;4942898;29;20035;-84
2023/09/16 11:04:20;;;;;;;7.28;6.07;;;;;;;19.89;82.21;101296.91;4936024;29;20716;-84
2023/09/16 11:06:52;;;;;;;8.73;5.95;;;;;;;19.93;79.77;101307.19;4945829;28;20050;-83
2023/09/16 11:09:20;;;;;;;7.85;5.90;;;;;;;19.95;79.86;101304.50;4944808;29;20039;-85
2023/09/16 11:11:47;;;;;;;7.13;5.38;;;;;;;19.98;80.08;101299.88;4945282;28;20027;-83
2023/09/16 11:14:14;;;;;;;8.90;5.78;;;;;;;20.03;81.46;101307.50;4943754;28;20023;-84
2023/09/16 11:16:49;;;;;;;9.15;5.93;;;;;;;20.08;81.63;101301.94;4943299;28;20035;-85
2023/09/16 11:19:24;;;;;;;6.93;5.45;;;;;;;20.11;79.40;101296.50;4945607;28;20039;-84
2023/09/16 11:21:50;;;;;;;7.47;5.68;;;;;;;20.17;78.87;101298.78;4947449;28;20483;-85
2023/09/16 11:24:16;;;;;;;8.43;6.00;;;;;;;20.23;80.05;101292.28;4941325;28;20122;-85
2023/09/16 11:26:46;;;;;;;7.40;6.05;;;;;;;20.27;78.65;101289.38;4940657;28;20142;-84
2023/09/16 11:29:22;;;;;;;7.67;6.00;;;;;;;20.34;80.40;101284.56;4940966;29;20126;-84
2023/09/16 11:31:48;;;;;;;7.57;5.75;;;;;;;20.39;78.83;101281.66;4938242;29;20294;-83
2023/09/16 11:34:17;;;;;;;7.30;5.63;;;;;;;20.45;77.91;101290.06;4941350;28;20085;-84
2023/09/16 11:36:47;;;;;;;9.80;6.00;;;;;;;20.51;77.68;101286.19;4942751;28;20042;-84
2023/09/16 11:39:18;;;;;;;7.80;5.78;;;;;;;20.55;76.79;101278.91;4943597;29;20051;-84
2023/09/16 11:41:45;;;;;;;8.07;5.75;;;;;;;20.58;77.34;101276.94;4943134;29;20054;-85
2023/09/16 11:44:11;;;;;;;9.45;6.00;;;;;;;20.62;77.21;101280.25;4941093;28;20485;-86
2023/09/16 11:46:37;;;;;;;9.18;5.97;;;;;;;20.66;78.03;101280.91;4944265;29;20067;-85
2023/09/16 11:49:05;;;;;;;7.93;6.00;;;;;;;20.70;78.15;101275.34;4942379;29;20039;-83
2023/09/16 11:51:32;;;;;;;8.13;6.10;;;;;;;20.73;79.14;101269.84;4940743;29;20027;-83
2023/09/16 11:53:58;;;;;;;6.90;5.65;;;;;;;20.76;77.83;101274.13;4945151;28;20398;-85
2023/09/16 11:56:25;;;;;;;7.25;5.78;;;;;;;20.79;77.42;101273.09;4944798;28;20030;-83
2023/09/16 11:58:54;;;;;;;6.60;5.55;;;;;;;20.87;79.67;101276.09;4945006;28;20165;-83
2023/09/16 12:01:22;;;;;;;9.23;6.90;;;;;;;20.93;77.96;101278.38;4944614;28;20023;-85
2023/09/16 12:03:48;;;;;;;8.45;6.45;;;;;;;20.97;76.68;101286.97;4944153;28;20031;-85
2023/09/16 12:06:17;;;;;;;8.07;6.45;;;;;;;21.00;76.31;101281.50;4943469;28;20031;-84
2023/09/16 12:08:44;;;;;;;9.55;6.57;;;;;;;21.03;77.23;101276.84;4958957;28;20027;-82
2023/09/16 12:11:09;;;;;;;9.57;6.15;;;;;;;21.05;76.54;101274.13;4937085;28;20034;-84
2023/09/16 12:13:35;;;;;;;8.63;6.60;;;;;;;21.08;77.16;101271.28;4941578;28;20035;-83
2023/09/16 12:16:00;;;;;;;8.48;6.45;;;;;;;21.11;77.23;101275.53;4939422;29;20153;-82
2023/09/16 12:18:26;;;;;;;9.90;6.60;;;;;;;21.13;77.28;101270.97;4937589;29;20023;-82
2023/09/16 12:20:54;;;;;;;8.38;6.35;;;;;;;21.18;77.78;101274.19;4938229;29;20039;-84
2023/09/16 12:23:20;;;;;;;7.97;6.25;;;;;;;21.20;76.98;101266.97;4941274;28;20386;-83
2023/09/16 12:25:46;;;;;;;8.73;6.45;;;;;;;21.22;76.15;101273.91;4942666;29;20046;-85
2023/09/16 12:28:18;;;;;;;8.90;6.57;;;;;;;21.26;76.73;101266.59;4942723;28;20085;-85
2023/09/16 12:30:44;;;;;;;9.23;6.55;;;;;;;21.29;76.12;101271.69;4941063;29;20035;-84
2023/09/16 12:33:10;;;;;;;9.02;6.10;;;;;;;21.34;76.53;101269.63;4937607;28;20083;-85
2023/09/16 12:35:40;;;;;;;8.10;6.20;;;;;;;21.39;77.19;101271.97;4941906;28;20090;-83
2023/09/16 12:38:06;;;;;;;8.07;6.22;;;;;;;21.42;75.74;101271.75;4942214;28;20544;-83
2023/09/16 12:40:34;;;;;;;8.38;6.22;;;;;;;21.44;76.66;101276.94;4940567;28;20035;-85
2023/09/16 12:43:00;;;;;;;8.75;6.40;;;;;;;21.48;74.98;101273.16;4939974;28;20109;-84
2023/09/16 12:45:27;;;;;;;9.18;6.32;;;;;;;21.52;74.35;101274.66;4942658;29;20039;-83
2023/09/16 12:47:54;;;;;;;7.13;5.85;;;;;;;21.58;77.89;101265.47;4940706;29;20019;-83
2023/09/16 12:50:21;;;;;;;7.35;5.78;;;;;;;21.63;77.30;101272.19;4940530;29;20030;-83
2023/09/16 12:52:46;;;;;;;7.57;5.93;;;;;;;21.70;76.20;101266.47;4938353;28;20039;-84
2023/09/16 12:55:13;;;;;;;9.15;6.78;;;;;;;21.72;74.35;101268.06;4940563;29;20606;-82
2023/09/16 12:57:39;;;;;;;9.50;6.88;;;;;;;21.79;77.87;101257.91;4940742;29;20074;-84
2023/09/16 13:00:08;;;;;;;8.52;6.45;;;;;;;21.82;75.03;101257.72;4941771;28;20031;-84
2023/09/16 13:02:36;;;;;;;8.93;6.35;;;;;;;21.86;74.94;101253.91;4941324;29;21040;-85
2023/09/16 13:05:35;;;;;;;8.20;6.30;;;;;;;21.90;76.61;101249.25;4941572;28;20023;-85
2023/09/16 13:08:00;;;;;;;6.78;5.60;;;;;;;21.92;75.85;101256.13;4911360;28;20043;-83
2023/09/16 13:10:28;;;;;;;7.82;5.90;;;;;;;21.95;76.07;101252.41;4940768;29;20041;-82
2023/09/16 13:12:55;;;;;;;11.98;6.57;;;;;;;21.95;73.47;101248.00;4942420;28;20079;-82
2023/09/16 13:15:22;;;;;;;9.40;6.43;;;;;;;21.98;73.80;101250.44;4942201;29;20070;-83